sensor_id;sensor_type;location;lat;lon;timestamp;temperature;humidity
2453;DHT22;63678;47.994;7.854;2024-01-25T00:00:20;11.90;99.90
2453;DHT22;63678;47.994;7.854;2024-01-25T00:02:53;11.90;99.90
2453;DHT22;63678;47.994;7.854;2024-01-25T00:05:26;11.90;99.90
2453;DHT22;63678;47.994;7.854;2024-01-25T00:07:58;11.90;99.90
2453;DHT22;63678;47.994;7.854;2024-01-25T00:10:31;11.90;99.90
2453;DHT22;63678;47.994;7.854;2024-01-25T00:15:36;11.90;99.90
2453;DHT22;63678;47.994;7.854;2024-01-25T00:18:09;11.80;99.90
2453;DHT22;63678;47.994;7.854;2024-01-25T00:20:42;11.80;99.90
2453;DHT22;63678;47.994;7.854;2024-01-25T00:23:15;11.70;99.90
2453;DHT22;63678;47.994;7.854;2024-01-25T00:25:47;11.80;99.90
2453;DHT22;63678;47.994;7.854;2024-01-25T00:28:20;11.70;99.90
2453;DHT22;63678;47.994;7.854;2024-01-25T00:30:52;11.80;99.90
2453;DHT22;63678;47.994;7.854;2024-01-25T00:33:25;11.90;99.90
2453;DHT22;63678;47.994;7.854;2024-01-25T00:35:58;11.90;99.90
2453;DHT22;63678;47.994;7.854;2024-01-25T00:38:31;11.90;99.90
2453;DHT22;63678;47.994;7.854;2024-01-25T00:41:05;11.90;99.90
2453;DHT22;63678;47.994;7.854;2024-01-25T00:43:41;11.80;99.90
2453;DHT22;63678;47.994;7.854;2024-01-25T00:46:14;11.80;99.90
2453;DHT22;63678;47.994;7.854;2024-01-25T00:48:47;11.80;99.90
2453;DHT22;63678;47.994;7.854;2024-01-25T00:51:21;11.80;99.90
2453;DHT22;63678;47.994;7.854;2024-01-25T00:53:57;11.80;99.90
2453;DHT22;63678;47.994;7.854;2024-01-25T00:56:30;11.80;99.90
2453;DHT22;63678;47.994;7.854;2024-01-25T00:59:03;11.80;99.90
2453;DHT22;63678;47.994;7.854;2024-01-25T01:01:36;11.80;99.90
2453;DHT22;63678;47.994;7.854;2024-01-25T01:04:09;11.80;99.90
2453;DHT22;63678;47.994;7.854;2024-01-25T01:06:41;11.70;99.90
2453;DHT22;63678;47.994;7.854;2024-01-25T01:09:15;11.80;99.90
2453;DHT22;63678;47.994;7.854;2024-01-25T01:11:47;11.80;99.90
2453;DHT22;63678;47.994;7.854;2024-01-25T01:16:52;11.70;99.90
2453;DHT22;63678;47.994;7.854;2024-01-25T01:19:25;11.60;99.90
2453;DHT22;63678;47.994;7.854;2024-01-25T01:24:31;11.60;99.90
2453;DHT22;63678;47.994;7.854;2024-01-25T01:27:03;11.50;99.90
2453;DHT22;63678;47.994;7.854;2024-01-25T01:29:36;11.50;99.90
2453;DHT22;63678;47.994;7.854;2024-01-25T01:32:09;11.50;99.90
2453;DHT22;63678;47.994;7.854;2024-01-25T01:34:42;11.40;99.90
2453;DHT22;63678;47.994;7.854;2024-01-25T01:37:15;11.40;99.90
2453;DHT22;63678;47.994;7.854;2024-01-25T01:39:48;11.40;99.90
2453;DHT22;63678;47.994;7.854;2024-01-25T01:42:22;11.40;99.90
2453;DHT22;63678;47.994;7.854;2024-01-25T01:44:55;11.40;99.90
2453;DHT22;63678;47.994;7.854;2024-01-25T01:47:28;11.40;99.90
2453;DHT22;63678;47.994;7.854;2024-01-25T01:50:01;11.40;99.90
2453;DHT22;63678;47.994;7.854;2024-01-25T01:57:41;11.30;99.90
2453;DHT22;63678;47.994;7.854;2024-01-25T02:00:15;11.30;99.90
2453;DHT22;63678;47.994;7.854;2024-01-25T02:02:48;11.30;99.90
2453;DHT22;63678;47.994;7.854;2024-01-25T02:05:21;11.20;99.90
2453;DHT22;63678;47.994;7.854;2024-01-25T02:07:53;11.20;99.90
2453;DHT22;63678;47.994;7.854;2024-01-25T02:10:26;11.10;99.90
2453;DHT22;63678;47.994;7.854;2024-01-25T02:12:58;11.10;99.90
2453;DHT22;63678;47.994;7.854;2024-01-25T02:15:31;11.00;99.90
2453;DHT22;63678;47.994;7.854;2024-01-25T02:18:04;11.00;99.90
2453;DHT22;63678;47.994;7.854;2024-01-25T02:20:37;11.00;99.90
2453;DHT22;63678;47.994;7.854;2024-01-25T02:23:09;11.00;99.90
2453;DHT22;63678;47.994;7.854;2024-01-25T02:25:42;11.00;99.90
2453;DHT22;63678;47.994;7.854;2024-01-25T02:28:14;11.00;99.90
2453;DHT22;63678;47.994;7.854;2024-01-25T02:30:47;10.90;99.90
2453;DHT22;63678;47.994;7.854;2024-01-25T02:33:20;10.90;99.90
2453;DHT22;63678;47.994;7.854;2024-01-25T02:35:52;11.00;99.90
2453;DHT22;63678;47.994;7.854;2024-01-25T02:38:25;11.00;99.90
2453;DHT22;63678;47.994;7.854;2024-01-25T02:40:57;11.00;99.90
2453;DHT22;63678;47.994;7.854;2024-01-25T02:43:30;11.10;99.90
2453;DHT22;63678;47.994;7.854;2024-01-25T02:46:02;11.10;99.90
2453;DHT22;63678;47.994;7.854;2024-01-25T02:48:35;11.00;99.90
2453;DHT22;63678;47.994;7.854;2024-01-25T02:51:08;11.00;99.90
2453;DHT22;63678;47.994;7.854;2024-01-25T02:53:41;10.90;99.90
2453;DHT22;63678;47.994;7.854;2024-01-25T02:56:14;10.90;99.90
2453;DHT22;63678;47.994;7.854;2024-01-25T02:58:46;11.00;99.90
2453;DHT22;63678;47.994;7.854;2024-01-25T03:01:19;10.90;99.90
2453;DHT22;63678;47.994;7.854;2024-01-25T03:03:51;10.80;99.90
2453;DHT22;63678;47.994;7.854;2024-01-25T03:06:24;10.90;99.90
2453;DHT22;63678;47.994;7.854;2024-01-25T03:08:56;10.90;99.90
2453;DHT22;63678;47.994;7.854;2024-01-25T03:11:28;10.80;99.90
2453;DHT22;63678;47.994;7.854;2024-01-25T03:14:01;10.80;99.90
2453;DHT22;63678;47.994;7.854;2024-01-25T03:16:33;10.80;99.90
2453;DHT22;63678;47.994;7.854;2024-01-25T03:19:06;10.80;99.90
2453;DHT22;63678;47.994;7.854;2024-01-25T03:21:41;10.80;99.90
2453;DHT22;63678;47.994;7.854;2024-01-25T03:24:37;10.80;99.90
2453;DHT22;63678;47.994;7.854;2024-01-25T03:27:11;10.80;99.90
2453;DHT22;63678;47.994;7.854;2024-01-25T03:29:45;10.80;99.90
2453;DHT22;63678;47.994;7.854;2024-01-25T03:32:18;10.80;99.90
2453;DHT22;63678;47.994;7.854;2024-01-25T03:34:50;10.80;99.90
2453;DHT22;63678;47.994;7.854;2024-01-25T03:37:23;10.80;99.90
2453;DHT22;63678;47.994;7.854;2024-01-25T03:39:56;10.80;99.90
2453;DHT22;63678;47.994;7.854;2024-01-25T03:42:28;10.80;99.90
2453;DHT22;63678;47.994;7.854;2024-01-25T03:45:01;10.80;99.90
2453;DHT22;63678;47.994;7.854;2024-01-25T03:47:34;10.70;99.90
2453;DHT22;63678;47.994;7.854;2024-01-25T03:50:06;10.70;99.90
2453;DHT22;63678;47.994;7.854;2024-01-25T03:52:39;10.70;99.90
2453;DHT22;63678;47.994;7.854;2024-01-25T03:55:12;10.60;99.90
2453;DHT22;63678;47.994;7.854;2024-01-25T03:57:44;10.50;99.90
2453;DHT22;63678;47.994;7.854;2024-01-25T04:00:17;10.50;99.90
2453;DHT22;63678;47.994;7.854;2024-01-25T04:02:50;10.50;99.90
2453;DHT22;63678;47.994;7.854;2024-01-25T04:05:23;10.40;99.90
2453;DHT22;63678;47.994;7.854;2024-01-25T04:07:55;10.40;99.90
2453;DHT22;63678;47.994;7.854;2024-01-25T04:10:28;10.30;99.90
2453;DHT22;63678;47.994;7.854;2024-01-25T04:13:00;10.20;99.90
2453;DHT22;63678;47.994;7.854;2024-01-25T04:15:33;10.20;99.90
2453;DHT22;63678;47.994;7.854;2024-01-25T04:18:06;10.40;99.90
2453;DHT22;63678;47.994;7.854;2024-01-25T04:20:41;10.50;99.90
2453;DHT22;63678;47.994;7.854;2024-01-25T04:25:46;10.00;99.90
2453;DHT22;63678;47.994;7.854;2024-01-25T04:30:53;9.90;99.90
2453;DHT22;63678;47.994;7.854;2024-01-25T04:33:26;9.90;99.90
2453;DHT22;63678;47.994;7.854;2024-01-25T04:35:58;9.90;99.90
2453;DHT22;63678;47.994;7.854;2024-01-25T04:38:31;9.90;99.90
2453;DHT22;63678;47.994;7.854;2024-01-25T04:41:04;9.80;99.90
2453;DHT22;63678;47.994;7.854;2024-01-25T04:43:37;9.70;99.90
2453;DHT22;63678;47.994;7.854;2024-01-25T04:46:10;9.70;99.90
2453;DHT22;63678;47.994;7.854;2024-01-25T04:48:42;9.70;99.90
2453;DHT22;63678;47.994;7.854;2024-01-25T04:51:16;9.70;99.90
2453;DHT22;63678;47.994;7.854;2024-01-25T04:53:49;9.70;99.90
2453;DHT22;63678;47.994;7.854;2024-01-25T04:56:22;9.60;99.90
2453;DHT22;63678;47.994;7.854;2024-01-25T04:58:54;9.60;99.90
2453;DHT22;63678;47.994;7.854;2024-01-25T05:01:27;9.60;99.90
2453;DHT22;63678;47.994;7.854;2024-01-25T05:04:00;9.60;99.90
2453;DHT22;63678;47.994;7.854;2024-01-25T05:06:32;9.50;99.90
2453;DHT22;63678;47.994;7.854;2024-01-25T05:09:05;9.60;99.90
2453;DHT22;63678;47.994;7.854;2024-01-25T05:12:03;9.50;99.90
2453;DHT22;63678;47.994;7.854;2024-01-25T05:14:35;9.60;99.90
2453;DHT22;63678;47.994;7.854;2024-01-25T05:17:08;9.60;99.90
2453;DHT22;63678;47.994;7.854;2024-01-25T05:19:40;9.60;99.90
2453;DHT22;63678;47.994;7.854;2024-01-25T05:22:13;9.60;99.90
2453;DHT22;63678;47.994;7.854;2024-01-25T05:24:45;9.60;99.90
2453;DHT22;63678;47.994;7.854;2024-01-25T05:29:51;9.60;99.90
2453;DHT22;63678;47.994;7.854;2024-01-25T05:32:24;9.70;99.90
2453;DHT22;63678;47.994;7.854;2024-01-25T05:34:56;9.60;99.90
2453;DHT22;63678;47.994;7.854;2024-01-25T05:37:29;9.70;99.90
2453;DHT22;63678;47.994;7.854;2024-01-25T05:40:02;9.70;99.90
2453;DHT22;63678;47.994;7.854;2024-01-25T05:42:35;9.70;99.90
2453;DHT22;63678;47.994;7.854;2024-01-25T05:45:08;9.70;99.90
2453;DHT22;63678;47.994;7.854;2024-01-25T05:47:41;9.60;99.90
2453;DHT22;63678;47.994;7.854;2024-01-25T05:50:14;9.70;99.90
2453;DHT22;63678;47.994;7.854;2024-01-25T05:52:47;9.70;99.90
2453;DHT22;63678;47.994;7.854;2024-01-25T05:55:19;9.70;99.90
2453;DHT22;63678;47.994;7.854;2024-01-25T05:57:53;9.70;99.90
2453;DHT22;63678;47.994;7.854;2024-01-25T06:00:26;9.70;99.90
2453;DHT22;63678;47.994;7.854;2024-01-25T06:03:00;9.60;99.90
2453;DHT22;63678;47.994;7.854;2024-01-25T06:05:33;9.60;99.90
2453;DHT22;63678;47.994;7.854;2024-01-25T06:08:06;9.60;99.90
2453;DHT22;63678;47.994;7.854;2024-01-25T06:10:38;9.40;99.90
2453;DHT22;63678;47.994;7.854;2024-01-25T06:13:11;9.50;99.90
2453;DHT22;63678;47.994;7.854;2024-01-25T06:15:44;9.50;99.90
2453;DHT22;63678;47.994;7.854;2024-01-25T06:18:22;9.40;99.90
2453;DHT22;63678;47.994;7.854;2024-01-25T06:20:55;9.40;99.90
2453;DHT22;63678;47.994;7.854;2024-01-25T06:23:28;9.30;99.90
2453;DHT22;63678;47.994;7.854;2024-01-25T06:26:00;9.40;99.90
2453;DHT22;63678;47.994;7.854;2024-01-25T06:28:33;9.40;99.90
2453;DHT22;63678;47.994;7.854;2024-01-25T06:31:05;9.30;99.90
2453;DHT22;63678;47.994;7.854;2024-01-25T06:33:37;9.30;99.90
2453;DHT22;63678;47.994;7.854;2024-01-25T06:36:10;9.30;99.90
2453;DHT22;63678;47.994;7.854;2024-01-25T06:41:18;9.30;99.90
2453;DHT22;63678;47.994;7.854;2024-01-25T06:43:51;9.10;99.90
2453;DHT22;63678;47.994;7.854;2024-01-25T06:46:23;9.30;99.90
2453;DHT22;63678;47.994;7.854;2024-01-25T06:48:56;9.40;99.90
2453;DHT22;63678;47.994;7.854;2024-01-25T06:51:28;9.50;99.90
2453;DHT22;63678;47.994;7.854;2024-01-25T06:56:34;9.40;99.90
2453;DHT22;63678;47.994;7.854;2024-01-25T06:59:07;9.50;99.90
2453;DHT22;63678;47.994;7.854;2024-01-25T07:01:39;9.50;99.90
2453;DHT22;63678;47.994;7.854;2024-01-25T07:04:12;9.50;99.90
2453;DHT22;63678;47.994;7.854;2024-01-25T07:06:45;9.50;99.90
2453;DHT22;63678;47.994;7.854;2024-01-25T07:09:18;9.60;99.90
2453;DHT22;63678;47.994;7.854;2024-01-25T07:11:51;9.60;99.90
2453;DHT22;63678;47.994;7.854;2024-01-25T07:14:23;9.70;99.90
2453;DHT22;63678;47.994;7.854;2024-01-25T07:16:56;9.70;99.90
2453;DHT22;63678;47.994;7.854;2024-01-25T07:19:32;9.60;99.90
2453;DHT22;63678;47.994;7.854;2024-01-25T07:22:04;9.50;99.90
2453;DHT22;63678;47.994;7.854;2024-01-25T07:24:37;9.50;99.90
2453;DHT22;63678;47.994;7.854;2024-01-25T07:27:09;9.50;99.90
2453;DHT22;63678;47.994;7.854;2024-01-25T07:29:44;9.50;99.90
2453;DHT22;63678;47.994;7.854;2024-01-25T07:32:18;9.60;99.90
2453;DHT22;63678;47.994;7.854;2024-01-25T07:34:52;9.60;99.90
2453;DHT22;63678;47.994;7.854;2024-01-25T07:37:25;9.50;99.90
2453;DHT22;63678;47.994;7.854;2024-01-25T07:39:58;9.50;99.90
2453;DHT22;63678;47.994;7.854;2024-01-25T07:42:30;9.50;99.90
2453;DHT22;63678;47.994;7.854;2024-01-25T07:45:03;9.60;99.90
2453;DHT22;63678;47.994;7.854;2024-01-25T07:47:35;9.60;99.90
2453;DHT22;63678;47.994;7.854;2024-01-25T07:50:08;9.60;99.90
2453;DHT22;63678;47.994;7.854;2024-01-25T07:52:41;9.50;99.90
2453;DHT22;63678;47.994;7.854;2024-01-25T07:55:13;9.60;99.90
2453;DHT22;63678;47.994;7.854;2024-01-25T07:57:46;9.70;99.90
2453;DHT22;63678;47.994;7.854;2024-01-25T08:00:18;9.70;99.90
2453;DHT22;63678;47.994;7.854;2024-01-25T08:05:24;9.70;99.90
2453;DHT22;63678;47.994;7.854;2024-01-25T08:08:08;9.70;99.90
2453;DHT22;63678;47.994;7.854;2024-01-25T08:10:41;9.80;99.90
2453;DHT22;63678;47.994;7.854;2024-01-25T08:13:13;9.80;99.90
2453;DHT22;63678;47.994;7.854;2024-01-25T08:15:46;9.70;99.90
2453;DHT22;63678;47.994;7.854;2024-01-25T08:18:19;9.60;99.90
2453;DHT22;63678;47.994;7.854;2024-01-25T08:20:51;9.60;99.90
2453;DHT22;63678;47.994;7.854;2024-01-25T08:23:24;9.70;99.90
2453;DHT22;63678;47.994;7.854;2024-01-25T08:25:56;9.70;99.90
2453;DHT22;63678;47.994;7.854;2024-01-25T08:31:02;9.90;99.90
2453;DHT22;63678;47.994;7.854;2024-01-25T08:33:34;9.90;99.90
2453;DHT22;63678;47.994;7.854;2024-01-25T08:36:08;10.50;99.90
2453;DHT22;63678;47.994;7.854;2024-01-25T08:38:40;10.30;99.90
2453;DHT22;63678;47.994;7.854;2024-01-25T08:41:13;10.20;99.90
2453;DHT22;63678;47.994;7.854;2024-01-25T08:43:48;10.30;99.90
2453;DHT22;63678;47.994;7.854;2024-01-25T08:46:21;10.20;99.90
2453;DHT22;63678;47.994;7.854;2024-01-25T08:48:54;10.20;99.90
2453;DHT22;63678;47.994;7.854;2024-01-25T08:51:27;10.10;99.90
2453;DHT22;63678;47.994;7.854;2024-01-25T08:53:59;10.10;99.90
2453;DHT22;63678;47.994;7.854;2024-01-25T08:56:31;10.10;99.90
2453;DHT22;63678;47.994;7.854;2024-01-25T08:59:04;10.10;99.90
2453;DHT22;63678;47.994;7.854;2024-01-25T09:01:35;10.20;99.90
2453;DHT22;63678;47.994;7.854;2024-01-25T09:04:08;10.30;99.90
2453;DHT22;63678;47.994;7.854;2024-01-25T09:06:41;10.40;99.90
2453;DHT22;63678;47.994;7.854;2024-01-25T09:09:14;10.50;99.90
2453;DHT22;63678;47.994;7.854;2024-01-25T09:11:46;10.50;99.90
2453;DHT22;63678;47.994;7.854;2024-01-25T09:14:21;10.60;99.90
2453;DHT22;63678;47.994;7.854;2024-01-25T09:16:53;10.60;99.90
2453;DHT22;63678;47.994;7.854;2024-01-25T09:19:26;10.60;99.90
2453;DHT22;63678;47.994;7.854;2024-01-25T09:21:58;10.70;99.90
2453;DHT22;63678;47.994;7.854;2024-01-25T09:24:36;10.60;99.90
2453;DHT22;63678;47.994;7.854;2024-01-25T09:27:12;10.60;99.90
2453;DHT22;63678;47.994;7.854;2024-01-25T09:32:19;10.70;99.90
2453;DHT22;63678;47.994;7.854;2024-01-25T09:34:52;10.70;99.90
2453;DHT22;63678;47.994;7.854;2024-01-25T09:37:27;10.60;99.90
2453;DHT22;63678;47.994;7.854;2024-01-25T09:39:59;10.60;99.90
2453;DHT22;63678;47.994;7.854;2024-01-25T09:45:06;10.60;99.90
2453;DHT22;63678;47.994;7.854;2024-01-25T09:47:43;10.60;99.90
2453;DHT22;63678;47.994;7.854;2024-01-25T09:50:16;10.70;99.90
2453;DHT22;63678;47.994;7.854;2024-01-25T09:52:57;10.60;99.90
2453;DHT22;63678;47.994;7.854;2024-01-25T09:55:32;10.60;99.90
2453;DHT22;63678;47.994;7.854;2024-01-25T09:58:08;10.70;99.90
2453;DHT22;63678;47.994;7.854;2024-01-25T10:03:15;10.60;99.90
2453;DHT22;63678;47.994;7.854;2024-01-25T10:05:47;10.60;99.90
2453;DHT22;63678;47.994;7.854;2024-01-25T10:08:21;10.70;99.90
2453;DHT22;63678;47.994;7.854;2024-01-25T10:10:56;10.80;99.90
2453;DHT22;63678;47.994;7.854;2024-01-25T10:13:28;10.80;99.90
2453;DHT22;63678;47.994;7.854;2024-01-25T10:16:01;10.80;99.90
2453;DHT22;63678;47.994;7.854;2024-01-25T10:18:34;10.90;99.90
2453;DHT22;63678;47.994;7.854;2024-01-25T10:21:07;11.10;99.90
2453;DHT22;63678;47.994;7.854;2024-01-25T10:23:40;11.10;99.90
2453;DHT22;63678;47.994;7.854;2024-01-25T10:26:13;11.10;99.90
2453;DHT22;63678;47.994;7.854;2024-01-25T10:28:52;11.20;99.90
2453;DHT22;63678;47.994;7.854;2024-01-25T10:31:38;11.40;99.90
2453;DHT22;63678;47.994;7.854;2024-01-25T10:34:13;11.40;99.90
2453;DHT22;63678;47.994;7.854;2024-01-25T10:36:47;11.30;99.90
2453;DHT22;63678;47.994;7.854;2024-01-25T10:39:21;11.20;99.90
2453;DHT22;63678;47.994;7.854;2024-01-25T10:41:54;11.10;99.90
2453;DHT22;63678;47.994;7.854;2024-01-25T10:44:27;11.10;99.90
2453;DHT22;63678;47.994;7.854;2024-01-25T10:47:00;11.10;99.90
2453;DHT22;63678;47.994;7.854;2024-01-25T10:49:34;11.10;99.90
2453;DHT22;63678;47.994;7.854;2024-01-25T10:52:07;11.10;99.90
2453;DHT22;63678;47.994;7.854;2024-01-25T10:59:47;11.00;99.90
2453;DHT22;63678;47.994;7.854;2024-01-25T11:04:55;11.30;99.90
2453;DHT22;63678;47.994;7.854;2024-01-25T11:07:29;11.40;99.90
2453;DHT22;63678;47.994;7.854;2024-01-25T11:10:21;11.40;99.90
2453;DHT22;63678;47.994;7.854;2024-01-25T11:12:59;11.40;99.90
2453;DHT22;63678;47.994;7.854;2024-01-25T11:15:34;11.30;99.90
2453;DHT22;63678;47.994;7.854;2024-01-25T11:18:08;11.30;99.90
2453;DHT22;63678;47.994;7.854;2024-01-25T11:20:40;11.30;99.90
2453;DHT22;63678;47.994;7.854;2024-01-25T11:23:15;11.40;99.90
2453;DHT22;63678;47.994;7.854;2024-01-25T11:28:20;11.30;99.90
2453;DHT22;63678;47.994;7.854;2024-01-25T11:30:54;11.20;99.90
2453;DHT22;63678;47.994;7.854;2024-01-25T11:33:27;11.30;99.90
2453;DHT22;63678;47.994;7.854;2024-01-25T11:35:59;11.20;99.90
2453;DHT22;63678;47.994;7.854;2024-01-25T11:41:03;11.40;99.90
2453;DHT22;63678;47.994;7.854;2024-01-25T11:43:35;11.40;99.90
2453;DHT22;63678;47.994;7.854;2024-01-25T11:48:45;11.40;99.90
2453;DHT22;63678;47.994;7.854;2024-01-25T11:52:07;11.30;99.90
2453;DHT22;63678;47.994;7.854;2024-01-25T11:57:13;11.30;99.90
2453;DHT22;63678;47.994;7.854;2024-01-25T12:02:37;11.30;99.90
2453;DHT22;63678;47.994;7.854;2024-01-25T12:06:47;11.30;99.90
2453;DHT22;63678;47.994;7.854;2024-01-25T12:09:19;11.30;99.90
2453;DHT22;63678;47.994;7.854;2024-01-25T12:22:06;11.50;99.90
2453;DHT22;63678;47.994;7.854;2024-01-25T12:24:38;11.60;99.90
2453;DHT22;63678;47.994;7.854;2024-01-25T12:27:25;11.60;99.90
2453;DHT22;63678;47.994;7.854;2024-01-25T12:32:30;11.70;99.90
2453;DHT22;63678;47.994;7.854;2024-01-25T12:37:35;11.60;99.90
2453;DHT22;63678;47.994;7.854;2024-01-25T12:40:08;11.70;99.90
2453;DHT22;63678;47.994;7.854;2024-01-25T12:47:45;11.80;99.90
2453;DHT22;63678;47.994;7.854;2024-01-25T12:52:51;11.80;99.90
2453;DHT22;63678;47.994;7.854;2024-01-25T12:57:59;11.80;99.90
2453;DHT22;63678;47.994;7.854;2024-01-25T13:00:31;11.70;99.90
2453;DHT22;63678;47.994;7.854;2024-01-25T13:05:38;11.80;99.90
2453;DHT22;63678;47.994;7.854;2024-01-25T13:08:11;11.80;99.90
2453;DHT22;63678;47.994;7.854;2024-01-25T13:13:16;11.90;99.90
2453;DHT22;63678;47.994;7.854;2024-01-25T13:20:53;11.90;99.90
2453;DHT22;63678;47.994;7.854;2024-01-25T13:25:57;11.90;99.90
2453;DHT22;63678;47.994;7.854;2024-01-25T13:28:29;12.00;99.90
2453;DHT22;63678;47.994;7.854;2024-01-25T13:36:07;12.20;99.90
2453;DHT22;63678;47.994;7.854;2024-01-25T13:38:42;12.30;99.90
2453;DHT22;63678;47.994;7.854;2024-01-25T13:41:14;12.20;99.90
2453;DHT22;63678;47.994;7.854;2024-01-25T13:53:58;12.20;99.90
2453;DHT22;63678;47.994;7.854;2024-01-25T13:56:30;12.20;99.90
2453;DHT22;63678;47.994;7.854;2024-01-25T13:59:02;12.20;99.90
2453;DHT22;63678;47.994;7.854;2024-01-25T14:01:35;12.00;99.90
2453;DHT22;63678;47.994;7.854;2024-01-25T14:14:20;12.10;99.90
2453;DHT22;63678;47.994;7.854;2024-01-25T14:19:25;12.10;99.90
2453;DHT22;63678;47.994;7.854;2024-01-25T14:24:57;11.90;99.90
2453;DHT22;63678;47.994;7.854;2024-01-25T14:27:29;11.90;99.90
2453;DHT22;63678;47.994;7.854;2024-01-25T14:30:02;11.90;99.90
2453;DHT22;63678;47.994;7.854;2024-01-25T14:35:09;11.90;99.90
2453;DHT22;63678;47.994;7.854;2024-01-25T14:40:13;11.90;99.90
2453;DHT22;63678;47.994;7.854;2024-01-25T14:43:05;12.00;99.90
2453;DHT22;63678;47.994;7.854;2024-01-25T14:45:38;12.00;99.90
2453;DHT22;63678;47.994;7.854;2024-01-25T14:48:10;11.90;99.90
2453;DHT22;63678;47.994;7.854;2024-01-25T14:55:50;11.90;99.90
2453;DHT22;63678;47.994;7.854;2024-01-25T14:58:23;11.90;99.90
2453;DHT22;63678;47.994;7.854;2024-01-25T15:00:55;11.90;99.90
2453;DHT22;63678;47.994;7.854;2024-01-25T15:03:27;11.80;99.90
2453;DHT22;63678;47.994;7.854;2024-01-25T15:05:59;11.80;99.90
2453;DHT22;63678;47.994;7.854;2024-01-25T15:08:32;11.80;99.90
2453;DHT22;63678;47.994;7.854;2024-01-25T15:11:04;11.70;99.90
2453;DHT22;63678;47.994;7.854;2024-01-25T15:13:36;11.70;99.90
2453;DHT22;63678;47.994;7.854;2024-01-25T15:16:08;11.70;99.90
2453;DHT22;63678;47.994;7.854;2024-01-25T15:18:41;11.70;99.90
2453;DHT22;63678;47.994;7.854;2024-01-25T15:21:13;11.70;99.90
2453;DHT22;63678;47.994;7.854;2024-01-25T15:23:47;11.70;99.90
2453;DHT22;63678;47.994;7.854;2024-01-25T15:26:26;11.70;99.90
2453;DHT22;63678;47.994;7.854;2024-01-25T15:28:58;11.70;99.90
2453;DHT22;63678;47.994;7.854;2024-01-25T15:31:30;11.60;99.90
2453;DHT22;63678;47.994;7.854;2024-01-25T15:36:38;11.50;99.90
2453;DHT22;63678;47.994;7.854;2024-01-25T15:41:50;11.50;99.90
2453;DHT22;63678;47.994;7.854;2024-01-25T15:46:57;11.50;99.90
2453;DHT22;63678;47.994;7.854;2024-01-25T15:54:35;11.50;99.90
2453;DHT22;63678;47.994;7.854;2024-01-25T15:57:07;11.50;99.90
2453;DHT22;63678;47.994;7.854;2024-01-25T15:59:40;11.60;99.90
2453;DHT22;63678;47.994;7.854;2024-01-25T16:02:14;11.60;99.90
2453;DHT22;63678;47.994;7.854;2024-01-25T16:04:46;11.60;99.90
2453;DHT22;63678;47.994;7.854;2024-01-25T16:09:51;11.50;99.90
2453;DHT22;63678;47.994;7.854;2024-01-25T16:12:23;11.50;99.90
2453;DHT22;63678;47.994;7.854;2024-01-25T16:14:56;11.50;99.90
2453;DHT22;63678;47.994;7.854;2024-01-25T16:30:17;11.40;99.90
2453;DHT22;63678;47.994;7.854;2024-01-25T16:40:29;11.50;99.90
2453;DHT22;63678;47.994;7.854;2024-01-25T16:43:02;11.50;99.90
2453;DHT22;63678;47.994;7.854;2024-01-25T16:53:13;11.50;99.90
2453;DHT22;63678;47.994;7.854;2024-01-25T16:55:45;11.50;99.90
2453;DHT22;63678;47.994;7.854;2024-01-25T17:03:25;11.40;99.90
2453;DHT22;63678;47.994;7.854;2024-01-25T17:05:58;11.50;99.90
2453;DHT22;63678;47.994;7.854;2024-01-25T17:08:30;11.40;99.90
2453;DHT22;63678;47.994;7.854;2024-01-25T17:13:35;11.30;99.90
2453;DHT22;63678;47.994;7.854;2024-01-25T17:18:40;11.30;99.90
2453;DHT22;63678;47.994;7.854;2024-01-25T17:21:13;11.40;99.90
2453;DHT22;63678;47.994;7.854;2024-01-25T17:23:55;11.40;99.90
2453;DHT22;63678;47.994;7.854;2024-01-25T17:26:29;11.30;99.90
2453;DHT22;63678;47.994;7.854;2024-01-25T17:34:07;11.30;99.90
2453;DHT22;63678;47.994;7.854;2024-01-25T17:41:48;11.40;99.90
2453;DHT22;63678;47.994;7.854;2024-01-25T17:44:23;11.40;99.90
2453;DHT22;63678;47.994;7.854;2024-01-25T17:46:56;11.40;99.90
2453;DHT22;63678;47.994;7.854;2024-01-25T17:49:28;11.50;99.90
2453;DHT22;63678;47.994;7.854;2024-01-25T17:52:00;11.40;99.90
2453;DHT22;63678;47.994;7.854;2024-01-25T17:54:33;11.40;99.90
2453;DHT22;63678;47.994;7.854;2024-01-25T17:57:05;11.40;99.90
2453;DHT22;63678;47.994;7.854;2024-01-25T17:59:38;11.40;99.90
2453;DHT22;63678;47.994;7.854;2024-01-25T18:02:10;11.50;99.90
2453;DHT22;63678;47.994;7.854;2024-01-25T18:04:42;11.40;99.90
2453;DHT22;63678;47.994;7.854;2024-01-25T18:07:15;11.30;99.90
2453;DHT22;63678;47.994;7.854;2024-01-25T18:09:50;11.30;99.90
2453;DHT22;63678;47.994;7.854;2024-01-25T18:12:22;11.40;99.90
2453;DHT22;63678;47.994;7.854;2024-01-25T18:20:01;11.50;99.90
2453;DHT22;63678;47.994;7.854;2024-01-25T18:22:37;11.50;99.90
2453;DHT22;63678;47.994;7.854;2024-01-25T18:25:10;11.50;99.90
2453;DHT22;63678;47.994;7.854;2024-01-25T18:30:15;11.50;99.90
2453;DHT22;63678;47.994;7.854;2024-01-25T18:37:54;11.60;99.90
2453;DHT22;63678;47.994;7.854;2024-01-25T18:42:59;11.60;99.90
2453;DHT22;63678;47.994;7.854;2024-01-25T18:45:31;11.60;99.90
2453;DHT22;63678;47.994;7.854;2024-01-25T18:48:04;11.60;99.90
2453;DHT22;63678;47.994;7.854;2024-01-25T18:50:36;11.60;99.90
2453;DHT22;63678;47.994;7.854;2024-01-25T18:53:09;11.70;99.90
2453;DHT22;63678;47.994;7.854;2024-01-25T18:55:41;11.90;99.90
2453;DHT22;63678;47.994;7.854;2024-01-25T18:58:14;11.90;99.90
2453;DHT22;63678;47.994;7.854;2024-01-25T19:00:47;11.70;99.90
2453;DHT22;63678;47.994;7.854;2024-01-25T19:03:21;11.70;99.90
2453;DHT22;63678;47.994;7.854;2024-01-25T19:05:56;11.70;99.90
2453;DHT22;63678;47.994;7.854;2024-01-25T19:08:30;11.60;99.90
2453;DHT22;63678;47.994;7.854;2024-01-25T19:11:02;11.70;99.90
2453;DHT22;63678;47.994;7.854;2024-01-25T19:18:40;11.80;99.90
2453;DHT22;63678;47.994;7.854;2024-01-25T19:23:46;11.60;99.90
2453;DHT22;63678;47.994;7.854;2024-01-25T19:26:18;11.50;99.90
2453;DHT22;63678;47.994;7.854;2024-01-25T19:28:51;11.60;99.90
2453;DHT22;63678;47.994;7.854;2024-01-25T19:33:58;11.60;99.90
2453;DHT22;63678;47.994;7.854;2024-01-25T19:39:03;11.70;99.90
2453;DHT22;63678;47.994;7.854;2024-01-25T19:41:36;11.70;99.90
2453;DHT22;63678;47.994;7.854;2024-01-25T19:44:08;11.60;99.90
2453;DHT22;63678;47.994;7.854;2024-01-25T19:46:41;11.70;99.90
2453;DHT22;63678;47.994;7.854;2024-01-25T19:49:13;11.60;99.90
2453;DHT22;63678;47.994;7.854;2024-01-25T19:51:46;11.70;99.90
2453;DHT22;63678;47.994;7.854;2024-01-25T19:56:51;11.80;99.90
2453;DHT22;63678;47.994;7.854;2024-01-25T19:59:24;11.80;99.90
2453;DHT22;63678;47.994;7.854;2024-01-25T20:01:56;11.90;99.90
2453;DHT22;63678;47.994;7.854;2024-01-25T20:04:29;11.90;99.90
2453;DHT22;63678;47.994;7.854;2024-01-25T20:07:04;11.90;99.90
2453;DHT22;63678;47.994;7.854;2024-01-25T20:09:37;11.80;99.90
2453;DHT22;63678;47.994;7.854;2024-01-25T20:14:42;11.70;99.90
2453;DHT22;63678;47.994;7.854;2024-01-25T20:17:15;11.60;99.90
2453;DHT22;63678;47.994;7.854;2024-01-25T20:22:22;11.60;99.90
2453;DHT22;63678;47.994;7.854;2024-01-25T20:27:28;11.60;99.90
2453;DHT22;63678;47.994;7.854;2024-01-25T20:30:01;11.70;99.90